Tucson, AZ

10:57 AM MST on August 25, 2016 (GMT -0700)
RAWS | | Change Station

Elev 2264 ft 32.31 °N, 110.82 °W | Updated 49 minutes ago

Clear
Clear
89.0 °F
Feels Like 89.0 °F
N
3.0
Wind Variable Wind from SE
Gusts 7.0 mph

Today
High -- | Low -- °F
--% Chance of Precip.
Yesterday
High -- | Low -- °F
Precip. -- in
Pressure 29.94 in
Visibility 10.0 miles
Clouds Clear
Dew Point 54.0 °F
Humidity 31%
Rainfall in
Snow Depth Not available.
5:54 AM 6:55 PM
Last Quarter, 43% visible
METAR KDMA 251658Z AUTO 20004KT 10SM CLR 30/12 A3007 RMK AO2 SLP137 T02990120 $
Pressure 29.94 in
Visibility 10.0 miles
Clouds Clear
Dew Point 54.0 °F
Humidity 31%
Rainfall in
Snow Depth Not available.
5:54 AM 6:55 PM
Last Quarter, 43% visible
METAR KDMA 251658Z AUTO 20004KT 10SM CLR 30/12 A3007 RMK AO2 SLP137 T02990120 $
A tropical disturbance pushing toward the Bahamas, is expected to develop into a tropical depression or storm, and will likely target Florida and the Gulf Coast this weekend into next week.

Right now, the disturbance remains a broad area of low pressure pushing through the Dominican Republic and Haiti, headed toward the southeast Bahamas. Rainfall totals over 3 inches (with locally higher amounts) are expected in HispaƱiola, particularly over elevated terrain.

10-Day Weather Forecast

Almanac

Astronomy

Aug. 25, 2016 Rise Set
Actual Time
Civil Twilight
Nautical Twilight
Astronomical Twilight
Moon
Length of Visible Light
Length of Day
Tomorrow will be .
, % of the Moon is Illuminated

Today's Extremes

State Highs State Lows

Community

WunderPhotos

Upload Photos

1,934,886 photos uploaded!

WunderBlog® & News

Nearby

Air Quality

  Air Quality AQ Index Pollutant
Not available.

Snow Depth

Station Depth Elevation

Earthquake Activity

City Distance Mag. Time & Date
Minimum magnitude displayed is 2.5.

Coastal Water Temperatures

Place Temperature

Stations

Nearby Weather Stations

Station Location Temp. Windchill Dew Point Humidity Wind Precip. Elev Updated Type
                   

Watches & Warnings

There are currently no watches in effect.